Time;durP1;ratioP1;P1;durP2;ratioP2;P2;SDS_P1;SDS_P2;PMS_P1;PMS_P2;Temp;Humidity;BMP_temperature;BMP_pressure;BME280_temperature;BME280_humidity;BME280_pressure;Samples;Min_cycle;Max_cycle;Signal;HPM_P1;HPM_P2
2021/11/27 00:01:15;;;;;;;139.13;27.30;;;3.50;99.90;;;;;;4935873;29;20103;-87
2021/11/27 00:03:44;;;;;;;108.28;27.23;;;3.50;99.90;;;;;;4927725;29;20079;-85
2021/11/27 00:06:11;;;;;;;79.68;24.60;;;3.50;99.90;;;;;;4929290;29;20044;-85
2021/11/27 00:08:43;;;;;;;110.28;27.73;;;3.50;99.90;;;;;;4905744;29;20044;-85
2021/11/27 00:11:19;;;;;;;107.35;27.27;;;3.40;99.90;;;;;;4916509;29;20573;-88
2021/11/27 00:13:45;;;;;;;90.03;25.33;;;3.50;99.90;;;;;;4913543;29;20051;-90
2021/11/27 00:16:12;;;;;;;119.50;29.33;;;3.40;99.90;;;;;;4920630;29;20083;-85
2021/11/27 00:18:37;;;;;;;157.20;29.45;;;3.40;99.90;;;;;;4920137;29;20479;-86
2021/11/27 00:21:10;;;;;;;131.63;27.92;;;3.50;99.90;;;;;;4892074;29;20067;-85
2021/11/27 00:23:38;;;;;;;107.78;27.55;;;3.50;99.90;;;;;;4922004;29;20044;-86
2021/11/27 00:26:07;;;;;;;102.18;26.48;;;3.50;99.90;;;;;;4893972;29;20048;-86
2021/11/27 00:28:33;;;;;;;146.55;29.20;;;3.50;99.90;;;;;;4895839;29;20040;-86
2021/11/27 00:31:03;;;;;;;109.45;26.63;;;3.50;99.90;;;;;;4892308;29;20059;-87
2021/11/27 00:33:29;;;;;;;145.95;28.52;;;3.50;99.90;;;;;;4896945;29;20044;-87
2021/11/27 00:35:55;;;;;;;145.48;28.95;;;3.50;99.90;;;;;;4911539;29;20036;-88
2021/11/27 00:38:25;;;;;;;104.75;26.67;;;3.50;99.90;;;;;;4900064;29;20102;-88
2021/11/27 00:40:52;;;;;;;215.85;31.42;;;3.50;99.90;;;;;;4906942;29;20039;-88
2021/11/27 00:43:18;;;;;;;141.52;28.92;;;3.50;99.90;;;;;;4891499;29;20454;-88
2021/11/27 00:45:46;;;;;;;121.00;27.00;;;3.50;99.90;;;;;;4897398;29;20063;-88
2021/11/27 00:48:13;;;;;;;144.85;29.42;;;3.50;99.90;;;;;;4874467;29;20122;-88
2021/11/27 00:50:46;;;;;;;118.65;28.15;;;3.50;99.90;;;;;;4880581;29;20050;-90
2021/11/27 00:53:18;;;;;;;161.43;29.17;;;3.50;99.90;;;;;;4893177;29;20046;-88
2021/11/27 00:55:45;;;;;;;152.25;28.33;;;3.50;99.90;;;;;;4909460;29;20474;-88
2021/11/27 00:58:12;;;;;;;152.82;29.35;;;3.60;99.90;;;;;;4911821;29;20055;-87
2021/11/27 01:00:51;;;;;;;137.63;29.67;;;3.50;99.90;;;;;;4894923;29;20040;-88
2021/11/27 01:03:20;;;;;;;106.35;27.02;;;3.60;99.90;;;;;;4891243;29;20044;-88
2021/11/27 01:05:48;;;;;;;177.13;30.23;;;3.50;99.90;;;;;;4891879;29;20044;-87
2021/11/27 01:08:15;;;;;;;116.90;28.45;;;3.60;99.90;;;;;;4917064;29;20098;-89
2021/11/27 01:10:50;;;;;;;101.30;25.80;;;3.60;99.90;;;;;;4875333;29;20137;-87
2021/11/27 01:13:19;;;;;;;119.03;27.90;;;3.50;99.90;;;;;;4904900;29;20040;-88
2021/11/27 01:15:45;;;;;;;113.18;27.60;;;3.60;99.90;;;;;;4895217;29;20185;-88
2021/11/27 01:18:11;;;;;;;177.50;29.13;;;3.60;99.90;;;;;;4893903;29;20044;-88
2021/11/27 01:20:56;;;;;;;86.60;25.33;;;3.60;99.90;;;;;;4897770;29;20103;-88
2021/11/27 01:23:26;;;;;;;92.18;25.85;;;3.60;99.90;;;;;;4889301;29;20036;-88
2021/11/27 01:25:53;;;;;;;106.40;26.20;;;3.60;99.90;;;;;;4892172;29;20039;-88
2021/11/27 01:28:23;;;;;;;94.05;26.73;;;3.50;99.90;;;;;;4893720;29;20046;-87
2021/11/27 01:31:05;;;;;;;123.45;28.40;;;3.50;99.90;;;;;;4895466;29;20040;-89
2021/11/27 01:33:41;;;;;;;138.98;27.40;;;3.50;99.90;;;;;;4887762;29;20036;-89
2021/11/27 01:36:07;;;;;;;129.85;28.10;;;3.50;99.90;;;;;;4868551;29;20054;-89
2021/11/27 01:38:35;;;;;;;184.38;29.75;;;3.50;99.90;;;;;;4902834;29;20482;-89
2021/11/27 01:41:04;;;;;;;129.45;29.65;;;3.50;99.90;;;;;;4885845;29;20179;-89
2021/11/27 01:43:35;;;;;;;140.15;29.13;;;3.50;99.90;;;;;;4890605;29;20127;-88
2021/11/27 01:46:09;;;;;;;88.57;25.58;;;3.50;99.90;;;;;;4889074;29;20236;-89
2021/11/27 01:48:38;;;;;;;114.60;27.13;;;3.50;99.90;;;;;;4886676;29;20075;-88
2021/11/27 01:51:33;;;;;;;127.88;29.27;;;3.50;99.90;;;;;;4888609;29;20168;-89
2021/11/27 01:54:05;;;;;;;100.30;26.58;;;3.50;99.90;;;;;;4877883;29;20421;-89
2021/11/27 01:56:50;;;;;;;136.30;29.73;;;3.50;99.90;;;;;;4888222;29;20054;-89
2021/11/27 01:59:29;;;;;;;161.65;29.67;;;3.50;99.90;;;;;;4889282;29;20087;-89
2021/11/27 02:02:08;;;;;;;125.60;29.30;;;3.50;99.90;;;;;;4872612;29;20500;-88
2021/11/27 02:04:45;;;;;;;127.45;28.95;;;3.60;99.90;;;;;;4905119;29;20410;-89
2021/11/27 02:07:13;;;;;;;160.63;31.38;;;3.60;99.90;;;;;;4903646;29;20196;-86
2021/11/27 02:09:39;;;;;;;174.93;31.40;;;3.60;99.90;;;;;;4871200;29;20040;-87
2021/11/27 02:12:14;;;;;;;218.27;32.25;;;3.60;99.90;;;;;;4898817;29;20051;-88
2021/11/27 02:14:43;;;;;;;162.52;31.35;;;3.60;99.90;;;;;;4886069;29;20031;-87
2021/11/27 02:17:10;;;;;;;223.20;33.30;;;3.60;99.90;;;;;;4889350;29;20043;-87
2021/11/27 02:19:40;;;;;;;150.93;31.05;;;3.60;99.90;;;;;;4894094;29;20128;-87
2021/11/27 02:22:07;;;;;;;117.85;29.08;;;3.60;99.90;;;;;;4891199;29;20052;-89
2021/11/27 02:24:33;;;;;;;230.63;33.30;;;3.60;99.90;;;;;;4899925;28;20035;-88
2021/11/27 02:26:59;;;;;;;153.77;31.63;;;3.60;99.90;;;;;;4911807;29;20055;-89
2021/11/27 02:29:31;;;;;;;171.15;31.88;;;3.60;99.90;;;;;;4902050;29;20100;-87
2021/11/27 02:32:05;;;;;;;153.90;30.95;;;3.60;99.90;;;;;;4917658;29;20067;-88
2021/11/27 02:34:35;;;;;;;145.30;29.52;;;3.60;99.90;;;;;;4886930;29;20035;-88
2021/11/27 02:37:06;;;;;;;190.55;31.70;;;3.60;99.90;;;;;;4871024;29;20538;-87
2021/11/27 02:39:35;;;;;;;124.22;28.92;;;3.70;99.90;;;;;;4888809;29;20126;-87
2021/11/27 02:42:06;;;;;;;166.73;31.13;;;3.70;99.90;;;;;;4891101;29;20119;-87
2021/11/27 02:44:33;;;;;;;220.70;33.42;;;3.70;99.90;;;;;;4892001;29;20044;-87
2021/11/27 02:47:10;;;;;;;135.20;29.95;;;3.70;99.90;;;;;;4892307;29;20138;-88
2021/11/27 02:49:45;;;;;;;148.27;29.58;;;3.70;99.90;;;;;;4899039;29;20032;-86
2021/11/27 02:52:20;;;;;;;179.48;32.00;;;3.70;99.90;;;;;;4891963;29;20051;-87
2021/11/27 02:54:46;;;;;;;151.70;29.92;;;3.70;99.90;;;;;;4887788;29;20042;-86
2021/11/27 02:57:21;;;;;;;201.13;33.08;;;3.70;99.90;;;;;;4886685;29;20040;-87
2021/11/27 03:00:03;;;;;;;151.82;32.28;;;3.70;99.90;;;;;;4903778;29;20062;-87
2021/11/27 03:02:32;;;;;;;162.73;31.02;;;3.80;99.90;;;;;;4890612;29;20143;-87
2021/11/27 03:04:58;;;;;;;177.80;31.67;;;3.70;99.90;;;;;;4902821;29;20087;-87
2021/11/27 03:07:27;;;;;;;147.68;29.88;;;3.80;99.90;;;;;;4887387;29;21665;-87
2021/11/27 03:09:53;;;;;;;157.30;28.80;;;3.80;99.90;;;;;;4883918;29;20123;-88
2021/11/27 03:12:19;;;;;;;125.90;28.27;;;3.80;99.90;;;;;;4901039;29;20075;-87
2021/11/27 03:14:49;;;;;;;131.98;29.30;;;3.80;99.90;;;;;;4874172;29;20151;-88
2021/11/27 03:17:30;;;;;;;127.05;28.35;;;3.80;99.90;;;;;;4877329;29;20051;-87
2021/11/27 03:20:07;;;;;;;100.72;26.42;;;3.70;99.90;;;;;;4917665;29;20040;-87
2021/11/27 03:22:36;;;;;;;120.78;27.98;;;3.80;99.90;;;;;;4874120;29;20526;-88
2021/11/27 03:25:50;;;;;;;158.18;28.85;;;3.80;99.90;;;;;;4915281;29;20127;-87
2021/11/27 03:28:39;;;;;;;155.65;30.40;;;3.80;99.90;;;;;;4894379;29;20094;-87
2021/11/27 03:31:12;;;;;;;80.00;25.17;;;3.80;99.90;;;;;;4891086;29;20171;-87
2021/11/27 03:33:50;;;;;;;101.25;26.90;;;3.80;99.90;;;;;;4885752;29;20122;-87
2021/11/27 03:36:19;;;;;;;128.95;27.02;;;3.80;99.90;;;;;;4890461;29;20069;-87
2021/11/27 03:38:45;;;;;;;128.57;27.50;;;3.80;99.90;;;;;;4894635;29;20043;-86
2021/11/27 03:41:19;;;;;;;104.43;26.10;;;3.80;99.90;;;;;;4896464;29;20458;-88
2021/11/27 03:44:05;;;;;;;162.95;28.55;;;3.80;99.90;;;;;;4895118;29;20051;-88
2021/11/27 03:46:59;;;;;;;79.50;23.55;;;3.80;99.90;;;;;;4889988;29;20078;-88
2021/11/27 03:49:53;;;;;;;89.53;25.02;;;3.70;99.90;;;;;;4897196;29;20036;-87
2021/11/27 03:52:39;;;;;;;83.45;25.33;;;3.80;99.90;;;;;;4890189;29;20036;-87
2021/11/27 03:55:05;;;;;;;156.68;27.13;;;3.80;99.90;;;;;;4883741;29;20051;-88
2021/11/27 03:57:43;;;;;;;96.28;25.65;;;3.80;99.90;;;;;;4887187;29;20066;-88
2021/11/27 04:00:12;;;;;;;116.20;26.65;;;3.80;99.90;;;;;;4901061;29;20657;-88
2021/11/27 04:03:19;;;;;;;92.05;24.90;;;3.80;99.90;;;;;;4881725;29;20054;-88
2021/11/27 04:06:04;;;;;;;70.53;22.92;;;3.80;99.90;;;;;;4848843;29;20047;-88
2021/11/27 04:08:56;;;;;;;125.60;26.45;;;3.80;99.90;;;;;;4890492;29;20055;-87
2021/11/27 04:11:45;;;;;;;107.55;26.30;;;3.80;99.90;;;;;;4988164;23;20080;-87
2021/11/27 04:14:20;;;;;;;146.18;27.98;;;3.80;99.90;;;;;;4934044;28;20078;-87
2021/11/27 04:17:09;;;;;;;131.70;27.40;;;3.80;99.90;;;;;;4913272;28;20059;-88
2021/11/27 04:19:50;;;;;;;126.18;26.33;;;3.80;99.90;;;;;;4953310;28;20046;-88
2021/11/27 04:25:44;;;;;;;92.75;24.13;;;3.80;99.90;;;;;;4905185;29;20131;-88
2021/11/27 04:28:24;;;;;;;132.27;26.15;;;3.80;99.90;;;;;;4887403;29;20051;-85
2021/11/27 04:31:21;;;;;;;114.53;25.65;;;3.90;99.90;;;;;;4896271;29;20044;-87
2021/11/27 04:33:55;;;;;;;95.90;24.17;;;3.80;99.90;;;;;;4892322;29;20048;-87
2021/11/27 04:36:50;;;;;;;103.13;23.80;;;3.80;99.90;;;;;;4892182;29;20047;-87
2021/11/27 04:39:34;;;;;;;127.30;25.50;;;3.80;99.90;;;;;;4906880;29;20048;-87
2021/11/27 04:42:08;;;;;;;155.80;26.08;;;3.80;99.90;;;;;;4871167;29;20052;-87
2021/11/27 04:45:15;;;;;;;162.80;26.65;;;3.70;99.90;;;;;;4908674;29;20052;-87
2021/11/27 04:51:18;;;;;;;94.95;24.80;;;3.80;99.90;;;;;;4908576;29;20438;-88
2021/11/27 04:57:43;;;;;;;;;;;;;;;;;;;;;
2021/11/27 05:52:33;;;;;;;136.63;28.50;;;3.80;99.90;;;;;;4937292;28;20475;-85
2021/11/27 05:54:59;;;;;;;257.88;33.13;;;3.80;99.90;;;;;;4907847;29;20044;-86
2021/11/27 05:57:26;;;;;;;176.30;29.38;;;3.80;99.90;;;;;;4902896;28;20040;-85
2021/11/27 05:59:51;;;;;;;227.38;31.63;;;3.80;99.90;;;;;;4889330;29;20044;-85
2021/11/27 06:02:17;;;;;;;161.70;29.02;;;3.80;99.90;;;;;;4871813;29;20491;-85
2021/11/27 06:04:44;;;;;;;174.70;31.05;;;3.80;99.90;;;;;;4878617;29;20043;-85
2021/11/27 06:07:10;;;;;;;126.85;29.02;;;3.80;99.90;;;;;;4905663;29;20417;-86
2021/11/27 06:09:36;;;;;;;125.75;29.83;;;3.80;99.90;;;;;;4904689;29;20039;-85
2021/11/27 06:12:02;;;;;;;186.40;30.70;;;3.80;99.90;;;;;;4880400;29;20392;-85
2021/11/27 06:14:28;;;;;;;173.43;31.55;;;3.80;99.90;;;;;;4886614;29;20095;-85
2021/11/27 06:16:55;;;;;;;175.88;31.20;;;3.80;99.90;;;;;;4893229;29;20039;-86
2021/11/27 06:19:20;;;;;;;167.65;30.45;;;3.90;99.90;;;;;;4892131;29;20079;-85
2021/11/27 06:21:46;;;;;;;174.13;31.27;;;3.80;99.90;;;;;;4906123;29;20071;-86
2021/11/27 06:24:12;;;;;;;169.20;31.52;;;3.80;99.90;;;;;;4898786;29;20052;-86
2021/11/27 06:26:38;;;;;;;103.88;27.10;;;3.80;99.90;;;;;;4910371;29;20086;-86
2021/11/27 06:29:04;;;;;;;188.38;30.90;;;3.80;99.90;;;;;;4897829;29;20032;-85
2021/11/27 06:31:30;;;;;;;188.38;31.27;;;3.80;99.90;;;;;;4895927;29;20047;-85
2021/11/27 06:33:56;;;;;;;188.93;30.02;;;3.80;99.90;;;;;;4914874;29;20039;-85
2021/11/27 06:36:24;;;;;;;181.38;30.77;;;3.90;99.90;;;;;;4926223;29;20039;-86
2021/11/27 06:38:50;;;;;;;156.65;30.15;;;3.80;99.90;;;;;;4874509;29;20758;-86
2021/11/27 06:41:17;;;;;;;301.30;33.83;;;3.80;99.90;;;;;;4903041;29;20035;-85
2021/11/27 06:43:44;;;;;;;168.98;30.00;;;3.80;99.90;;;;;;4886059;29;20061;-86
2021/11/27 06:46:10;;;;;;;189.63;31.20;;;3.90;99.90;;;;;;4919308;29;20047;-85
2021/11/27 06:48:36;;;;;;;168.07;29.63;;;3.90;99.90;;;;;;4863740;29;20043;-86
2021/11/27 06:51:01;;;;;;;132.95;28.90;;;3.90;99.90;;;;;;4870370;29;20044;-85
2021/11/27 06:53:27;;;;;;;222.05;31.35;;;3.80;99.90;;;;;;4853131;29;20094;-85
2021/11/27 06:55:55;;;;;;;178.52;31.13;;;3.80;99.90;;;;;;4899025;29;20039;-85
2021/11/27 06:58:21;;;;;;;183.93;30.92;;;3.90;99.90;;;;;;4886699;29;20044;-84
2021/11/27 07:00:47;;;;;;;166.10;30.05;;;3.90;99.90;;;;;;4890883;29;20772;-86
2021/11/27 07:03:13;;;;;;;174.18;30.65;;;3.90;99.90;;;;;;4873985;29;20063;-87
2021/11/27 07:05:39;;;;;;;148.38;29.67;;;3.80;99.90;;;;;;4872842;29;20466;-87
2021/11/27 07:08:08;;;;;;;192.38;29.88;;;3.90;99.90;;;;;;4885229;29;20126;-86
2021/11/27 07:10:34;;;;;;;194.82;31.42;;;3.90;99.90;;;;;;4877316;29;20035;-86
2021/11/27 07:13:01;;;;;;;200.02;31.50;;;3.90;99.90;;;;;;4894271;29;20040;-86
2021/11/27 07:15:27;;;;;;;184.40;30.60;;;4.00;99.90;;;;;;4886248;29;20047;-85
2021/11/27 07:17:56;;;;;;;197.35;31.33;;;4.00;99.90;;;;;;4908242;29;20075;-86
2021/11/27 07:20:22;;;;;;;196.80;31.70;;;3.90;99.90;;;;;;4892157;29;20122;-86
2021/11/27 07:22:48;;;;;;;157.15;29.10;;;3.90;99.90;;;;;;4875963;29;20127;-87
2021/11/27 07:25:14;;;;;;;176.02;30.70;;;3.90;99.90;;;;;;4906667;29;20098;-86
2021/11/27 07:27:42;;;;;;;157.20;29.65;;;3.90;99.90;;;;;;4890814;29;20044;-87
2021/11/27 07:30:09;;;;;;;199.35;30.70;;;3.90;99.90;;;;;;4904813;29;20048;-86
2021/11/27 07:32:34;;;;;;;158.18;30.63;;;4.00;99.90;;;;;;4874243;29;20036;-87
2021/11/27 07:35:01;;;;;;;212.75;30.55;;;3.90;99.90;;;;;;4890114;29;20785;-86
2021/11/27 07:37:26;;;;;;;131.07;28.10;;;3.90;99.90;;;;;;4895695;29;20040;-86
2021/11/27 07:39:54;;;;;;;197.20;29.73;;;4.00;99.90;;;;;;4883801;28;20054;-86
2021/11/27 07:42:20;;;;;;;144.77;27.58;;;3.90;99.90;;;;;;4890006;29;22295;-86
2021/11/27 07:45:15;;;;;;;162.88;28.35;;;4.00;99.90;;;;;;4911359;29;20048;-87
2021/11/27 07:47:42;;;;;;;152.48;27.90;;;4.00;99.90;;;;;;4876400;29;20052;-87
2021/11/27 07:50:12;;;;;;;151.50;28.48;;;4.00;99.90;;;;;;4898685;29;20043;-86
2021/11/27 07:52:39;;;;;;;86.97;24.85;;;4.00;99.90;;;;;;4922809;29;20043;-85
2021/11/27 07:55:12;;;;;;;164.20;27.20;;;4.00;99.90;;;;;;4897568;29;20039;-85
2021/11/27 07:57:38;;;;;;;;;;;4.00;99.90;;;;;;4904182;29;20051;-88
2021/11/27 08:00:05;;;;;;;183.60;27.80;;;4.10;99.90;;;;;;4902867;29;19926;-87
2021/11/27 08:02:33;;;;;;;180.15;27.95;;;4.10;99.90;;;;;;4935093;29;20051;-88
2021/11/27 08:04:59;;;;;;;150.52;27.75;;;4.10;99.90;;;;;;4902269;29;20056;-87
2021/11/27 08:07:35;;;;;;;161.35;27.85;;;4.10;99.90;;;;;;4897429;29;20044;-88
2021/11/27 08:10:10;;;;;;;138.52;26.83;;;4.10;99.90;;;;;;4902314;29;20046;-87
2021/11/27 08:12:40;;;;;;;198.80;28.80;;;4.20;99.90;;;;;;4897859;29;20102;-85
2021/11/27 08:15:07;;;;;;;163.48;27.73;;;4.20;99.90;;;;;;4901787;29;20095;-91
2021/11/27 08:17:35;;;;;;;173.68;28.75;;;4.20;99.90;;;;;;4911935;29;20047;-85
2021/11/27 08:20:09;;;;;;;160.27;27.40;;;4.20;99.90;;;;;;4898645;29;20047;-90
2021/11/27 08:22:37;;;;;;;103.45;24.58;;;4.30;99.90;;;;;;4918073;29;20509;-85
2021/11/27 08:25:05;;;;;;;147.93;27.98;;;4.30;99.90;;;;;;4901913;29;20051;-88
2021/11/27 08:27:33;;;;;;;147.90;27.02;;;4.30;99.90;;;;;;4885865;29;20062;-85
2021/11/27 08:30:08;;;;;;;146.32;27.33;;;4.30;99.90;;;;;;4902201;29;20109;-87
2021/11/27 08:32:35;;;;;;;180.52;28.40;;;4.40;99.90;;;;;;4900925;29;20055;-88
2021/11/27 08:35:03;;;;;;;154.75;27.48;;;4.40;99.90;;;;;;4900442;29;20040;-87
2021/11/27 08:37:29;;;;;;;161.02;27.88;;;4.40;99.90;;;;;;4924289;29;20048;-91
2021/11/27 08:40:02;;;;;;;116.53;26.17;;;4.50;99.90;;;;;;4941739;28;20036;-90
2021/11/27 08:42:28;;;;;;;212.60;29.95;;;4.40;99.90;;;;;;4898344;29;20048;-85
2021/11/27 08:45:16;;;;;;;139.90;27.13;;;4.50;99.90;;;;;;4913445;29;20075;-88
2021/11/27 08:47:45;;;;;;;180.05;27.85;;;4.50;99.90;;;;;;4914430;29;20482;-86
2021/11/27 08:50:12;;;;;;;203.88;27.63;;;4.50;99.90;;;;;;4903765;29;20407;-87
2021/11/27 08:52:41;;;;;;;148.57;26.88;;;4.50;99.90;;;;;;4904059;29;20052;-86
2021/11/27 08:55:15;;;;;;;147.45;27.55;;;4.60;99.90;;;;;;4889377;29;20035;-86
2021/11/27 08:57:47;;;;;;;99.80;23.73;;;4.60;99.90;;;;;;4889788;29;20036;-85
2021/11/27 09:00:14;;;;;;;97.93;23.95;;;4.60;99.90;;;;;;4903034;29;20047;-89
2021/11/27 09:02:44;;;;;;;101.35;24.15;;;4.60;99.90;;;;;;4922058;29;20043;-85
2021/11/27 09:05:15;;;;;;;180.57;27.58;;;4.70;99.90;;;;;;4904052;29;20058;-87
2021/11/27 09:07:47;;;;;;;107.03;24.63;;;4.60;99.90;;;;;;4890399;29;20048;-86
2021/11/27 09:10:18;;;;;;;132.48;25.52;;;4.70;99.90;;;;;;4900650;29;20083;-85
2021/11/27 09:12:53;;;;;;;77.00;21.98;;;4.70;99.90;;;;;;4912599;29;20040;-88
2021/11/27 09:15:58;;;;;;;96.82;23.85;;;4.80;99.90;;;;;;4911509;29;20226;-86
2021/11/27 09:18:53;;;;;;;91.43;23.60;;;4.80;99.90;;;;;;4880500;29;20084;-86
2021/11/27 09:21:19;;;;;;;102.47;25.08;;;4.80;99.90;;;;;;4929903;29;20044;-87
2021/11/27 09:23:44;;;;;;;62.78;20.30;;;4.90;99.90;;;;;;4916911;29;20646;-86
2021/11/27 09:26:32;;;;;;;42.22;16.60;;;4.90;99.90;;;;;;4944374;28;20052;-87
2021/11/27 09:29:20;;;;;;;68.50;19.90;;;4.90;99.90;;;;;;4934227;29;20039;-86
2021/11/27 09:31:50;;;;;;;74.82;20.05;;;4.90;99.90;;;;;;4939446;28;20329;-86
2021/11/27 09:34:19;;;;;;;73.65;19.13;;;4.90;99.90;;;;;;4938280;29;20040;-86
2021/11/27 09:36:49;;;;;;;87.30;21.33;;;4.90;99.90;;;;;;4892596;29;20051;-89
2021/11/27 09:39:22;;;;;;;38.53;15.50;;;4.90;99.90;;;;;;4927602;29;20049;-87
2021/11/27 09:42:03;;;;;;;63.88;17.00;;;4.90;99.90;;;;;;4884103;29;20502;-86
2021/11/27 09:44:39;;;;;;;43.90;15.73;;;5.00;99.90;;;;;;4915348;29;20067;-87
2021/11/27 09:47:39;;;;;;;42.97;14.85;;;4.90;99.90;;;;;;4902573;29;20040;-88
2021/11/27 09:50:55;;;;;;;52.40;16.60;;;4.90;99.90;;;;;;4888990;29;20074;-87
2021/11/27 09:53:25;;;;;;;63.20;17.42;;;4.90;99.90;;;;;;4915322;29;20048;-87
2021/11/27 09:56:06;;;;;;;40.15;15.27;;;4.90;99.90;;;;;;4916267;29;20379;-86
2021/11/27 09:58:45;;;;;;;30.35;12.52;;;4.90;99.90;;;;;;4914561;29;20129;-88
2021/11/27 10:01:13;;;;;;;21.27;10.90;;;4.90;99.90;;;;;;4904295;29;20052;-87
2021/11/27 10:03:41;;;;;;;27.30;10.20;;;4.90;99.90;;;;;;4917335;29;20074;-86
2021/11/27 10:06:47;;;;;;;29.85;10.70;;;4.80;99.90;;;;;;4919752;29;20066;-88
2021/11/27 10:09:19;;;;;;;21.25;9.38;;;4.80;99.90;;;;;;4908292;29;20464;-89
2021/11/27 10:11:47;;;;;;;19.92;9.43;;;4.80;99.90;;;;;;4908332;29;20494;-86
2021/11/27 10:14:14;;;;;;;18.92;9.68;;;4.80;99.90;;;;;;4883987;29;20042;-85
2021/11/27 10:17:09;;;;;;;24.63;9.13;;;4.80;99.90;;;;;;4907741;29;20043;-87
2021/11/27 10:19:41;;;;;;;25.23;9.98;;;4.80;99.90;;;;;;4869103;29;20119;-85
2021/11/27 10:22:18;;;;;;;20.40;9.15;;;4.80;99.90;;;;;;4901527;29;20152;-88
2021/11/27 10:28:26;;;;;;;21.67;8.85;;;4.80;99.90;;;;;;4905809;29;20048;-87
2021/11/27 10:31:04;;;;;;;22.27;8.23;;;4.80;99.90;;;;;;4868144;29;20043;-85
2021/11/27 10:33:37;;;;;;;21.13;9.07;;;4.80;99.90;;;;;;4907614;29;20035;-85
2021/11/27 10:36:12;;;;;;;18.42;8.38;;;4.80;99.90;;;;;;4894537;29;20062;-85
2021/11/27 10:38:51;;;;;;;18.13;8.95;;;4.80;99.90;;;;;;4894633;29;20059;-85
2021/11/27 10:41:18;;;;;;;19.73;9.27;;;4.80;99.90;;;;;;4909409;29;20072;-86
2021/11/27 10:44:07;;;;;;;25.90;10.63;;;4.80;99.90;;;;;;4881726;29;20047;-85
2021/11/27 10:46:37;;;;;;;37.58;12.50;;;4.80;99.90;;;;;;4914759;29;20083;-86
2021/11/27 10:49:10;;;;;;;29.67;9.63;;;4.80;99.90;;;;;;4941016;28;20366;-85
2021/11/27 10:51:41;;;;;;;31.02;11.68;;;4.80;99.90;;;;;;4897698;29;20071;-90
2021/11/27 10:54:07;;;;;;;29.25;11.80;;;4.80;99.90;;;;;;4932946;28;20490;-85
2021/11/27 10:56:44;;;;;;;21.45;10.32;;;4.80;99.90;;;;;;4886955;29;20043;-85
2021/11/27 10:59:11;;;;;;;27.98;10.82;;;4.80;99.90;;;;;;4915606;29;20072;-87
2021/11/27 11:02:15;;;;;;;24.27;10.23;;;4.80;99.90;;;;;;4872869;29;20040;-84
2021/11/27 11:04:43;;;;;;;27.48;11.02;;;4.80;99.90;;;;;;4915305;29;20554;-84
2021/11/27 11:07:16;;;;;;;27.77;11.13;;;4.70;99.90;;;;;;4881122;29;20042;-89
2021/11/27 11:09:58;;;;;;;;;;;4.70;99.90;;;;;;4891466;29;20095;-85
2021/11/27 11:12:48;;;;;;;23.93;9.97;;;4.60;99.90;;;;;;4900204;29;19923;-87
2021/11/27 11:15:24;;;;;;;32.17;12.02;;;4.60;99.90;;;;;;4897287;29;20584;-86
2021/11/27 11:18:07;;;;;;;31.77;12.48;;;4.60;99.90;;;;;;4915219;29;20406;-84
2021/11/27 11:20:33;;;;;;;43.38;13.88;;;4.70;99.90;;;;;;4921429;29;20036;-86
2021/11/27 11:23:02;;;;;;;21.98;9.73;;;4.60;99.90;;;;;;4890594;29;20739;-84
2021/11/27 11:25:29;;;;;;;20.88;10.20;;;4.60;99.90;;;;;;4907450;29;20048;-88
2021/11/27 11:27:56;;;;;;;20.60;11.02;;;4.60;99.90;;;;;;4920961;29;20032;-86
2021/11/27 11:30:23;;;;;;;19.40;10.98;;;4.60;99.90;;;;;;4914993;29;20430;-86
2021/11/27 11:32:50;;;;;;;14.57;9.45;;;4.50;99.90;;;;;;4909843;29;20394;-88
2021/11/27 11:35:16;;;;;;;14.98;9.57;;;4.50;99.90;;;;;;4912887;29;20082;-86
2021/11/27 11:37:42;;;;;;;16.02;8.80;;;4.50;99.90;;;;;;4912955;29;20046;-85
2021/11/27 11:40:10;;;;;;;13.77;8.98;;;4.50;99.90;;;;;;4885350;29;20437;-85
2021/11/27 11:42:35;;;;;;;14.63;8.57;;;4.50;99.90;;;;;;4880589;29;20517;-85
2021/11/27 11:45:01;;;;;;;15.85;8.88;;;4.50;99.90;;;;;;4936010;29;20040;-89
2021/11/27 11:47:27;;;;;;;15.05;9.10;;;4.40;99.90;;;;;;4865900;29;20048;-86
2021/11/27 11:50:04;;;;;;;18.77;9.13;;;4.40;99.90;;;;;;4887665;28;20118;-86
2021/11/27 11:52:56;;;;;;;28.60;10.30;;;4.40;99.90;;;;;;4908653;29;20036;-86
2021/11/27 11:55:24;;;;;;;16.70;8.90;;;4.40;99.90;;;;;;4910278;29;20039;-85
2021/11/27 11:57:56;;;;;;;18.70;9.43;;;4.40;99.90;;;;;;4877938;29;20051;-87
2021/11/27 12:00:28;;;;;;;14.70;8.70;;;4.40;99.90;;;;;;4900181;29;20051;-86
2021/11/27 12:03:06;;;;;;;16.38;9.07;;;4.40;99.90;;;;;;4929847;28;20066;-87
2021/11/27 12:05:35;;;;;;;13.70;8.35;;;4.40;99.90;;;;;;4909425;29;20067;-85
2021/11/27 12:08:04;;;;;;;15.25;8.73;;;4.30;99.90;;;;;;4901806;29;20521;-85
2021/11/27 12:10:37;;;;;;;11.40;8.00;;;4.30;99.90;;;;;;4913330;29;20042;-85
2021/11/27 12:13:09;;;;;;;11.45;7.20;;;4.30;99.90;;;;;;4918562;29;20044;-85
2021/11/27 12:15:42;;;;;;;15.90;8.40;;;4.30;99.90;;;;;;4919154;29;20126;-85
2021/11/27 12:18:21;;;;;;;10.10;6.28;;;4.20;99.90;;;;;;4897295;29;20039;-85
2021/11/27 12:21:14;;;;;;;10.48;6.18;;;4.20;99.90;;;;;;4929147;29;20421;-85
2021/11/27 12:23:42;;;;;;;;;;;4.20;99.90;;;;;;4912678;29;20115;-86
2021/11/27 12:28:50;;;;;;;11.98;6.50;;;4.20;99.90;;;;;;4930826;29;20141;-86
2021/11/27 12:31:19;;;;;;;12.73;6.40;;;4.20;99.90;;;;;;4905284;29;20487;-85
2021/11/27 12:33:57;;;;;;;9.60;5.32;;;4.20;99.90;;;;;;4906695;29;20051;-87
2021/11/27 12:36:30;;;;;;;6.75;3.95;;;4.20;99.90;;;;;;4932619;29;20040;-90
2021/11/27 12:38:56;;;;;;;;;;;4.10;99.90;;;;;;4918823;29;20040;-88
2021/11/27 12:41:28;;;;;;;5.93;3.25;;;4.00;99.90;;;;;;4909570;29;19970;-86
2021/11/27 12:44:13;;;;;;;7.70;3.53;;;4.00;99.90;;;;;;4912731;29;20388;-89
2021/11/27 12:46:59;;;;;;;5.60;4.15;;;3.90;99.90;;;;;;4916928;29;20043;-88
2021/11/27 12:49:31;;;;;;;6.82;3.95;;;3.90;99.90;;;;;;4897305;29;20062;-87
2021/11/27 12:52:20;;;;;;;5.95;4.20;;;3.90;99.90;;;;;;4913337;29;20099;-85
2021/11/27 12:54:58;;;;;;;7.00;4.00;;;3.90;99.90;;;;;;4905451;29;20043;-89
2021/11/27 12:57:26;;;;;;;8.82;4.28;;;3.90;99.90;;;;;;4917280;29;20107;-85
2021/11/27 13:00:07;;;;;;;8.95;4.65;;;3.90;99.90;;;;;;4908588;29;20039;-86
2021/11/27 13:02:33;;;;;;;8.90;4.22;;;3.90;99.90;;;;;;4912674;29;20040;-88
2021/11/27 13:05:00;;;;;;;10.05;4.72;;;3.90;99.90;;;;;;4905926;29;20054;-87
2021/11/27 13:07:27;;;;;;;5.00;3.92;;;3.80;99.90;;;;;;4880988;29;20562;-88
2021/11/27 13:10:00;;;;;;;8.00;4.90;;;3.90;99.90;;;;;;4928217;29;20031;-89
2021/11/27 13:12:27;;;;;;;7.90;4.95;;;3.90;99.90;;;;;;4912015;29;20309;-85
2021/11/27 13:14:53;;;;;;;7.72;4.78;;;3.90;99.90;;;;;;4874961;29;20150;-86
2021/11/27 13:17:18;;;;;;;6.70;4.70;;;3.90;99.90;;;;;;4933755;29;20476;-86
2021/11/27 13:19:46;;;;;;;6.53;4.22;;;3.90;99.90;;;;;;4902619;28;20079;-88
2021/11/27 13:22:20;;;;;;;8.38;5.50;;;3.80;99.90;;;;;;4917985;29;20122;-90
2021/11/27 13:25:06;;;;;;;8.48;4.88;;;3.80;99.90;;;;;;4905249;29;20039;-87
2021/11/27 13:27:34;;;;;;;7.43;4.82;;;3.80;99.90;;;;;;4922545;29;20499;-86
2021/11/27 13:30:08;;;;;;;7.80;5.13;;;3.80;99.90;;;;;;4933701;29;20518;-87
2021/11/27 13:32:37;;;;;;;6.75;4.45;;;3.70;99.90;;;;;;4903707;29;20509;-85
2021/11/27 13:35:05;;;;;;;9.43;4.95;;;3.80;99.90;;;;;;4913657;29;20502;-87
2021/11/27 13:37:57;;;;;;;8.60;5.72;;;3.70;99.90;;;;;;4894838;29;20071;-88
2021/11/27 13:40:26;;;;;;;13.45;6.15;;;3.80;99.90;;;;;;4931063;29;20039;-88
2021/11/27 13:43:04;;;;;;;7.13;5.72;;;3.80;99.90;;;;;;4925448;29;20398;-87
2021/11/27 13:45:29;;;;;;;13.98;6.95;;;3.70;99.90;;;;;;4897156;29;20513;-89
2021/11/27 13:47:56;;;;;;;10.05;6.50;;;3.70;99.90;;;;;;4903150;29;20039;-87
2021/11/27 13:50:22;;;;;;;11.73;6.53;;;3.70;99.90;;;;;;4915875;29;20110;-89
2021/11/27 13:52:50;;;;;;;9.65;6.65;;;3.70;99.90;;;;;;4890969;29;20397;-90
2021/11/27 13:55:24;;;;;;;9.65;6.45;;;3.70;99.90;;;;;;4894513;29;20450;-86
2021/11/27 13:57:53;;;;;;;11.75;7.22;;;3.70;99.90;;;;;;4915707;29;20305;-86
2021/11/27 14:00:25;;;;;;;9.77;6.82;;;3.70;99.90;;;;;;4901115;29;20055;-87
2021/11/27 14:03:16;;;;;;;12.90;8.00;;;3.70;99.90;;;;;;4921863;29;20069;-87
2021/11/27 14:06:01;;;;;;;12.85;8.10;;;3.70;99.90;;;;;;4900195;29;20087;-86
2021/11/27 14:08:50;;;;;;;16.02;8.65;;;3.60;99.90;;;;;;4905590;29;20140;-85
2021/11/27 14:11:29;;;;;;;13.32;7.35;;;3.70;99.90;;;;;;4919983;29;20075;-85
2021/11/27 14:14:07;;;;;;;12.23;7.30;;;3.60;99.90;;;;;;4910943;29;20460;-87
2021/11/27 14:16:50;;;;;;;12.20;7.03;;;3.60;99.90;;;;;;4902908;29;20494;-86